Time;durP1;ratioP1;P1;durP2;ratioP2;P2;SDS_P1;SDS_P2;PMS_P1;PMS_P2;Temp;Humidity;BMP_temperature;BMP_pressure;BME280_temperature;BME280_humidity;BME280_pressure;Samples;Min_cycle;Max_cycle;Signal;HPM_P1;HPM_P2
2023/03/29 00:00:15;;;;;;;8.10;3.45;;;;;;;4.97;95.55;101685.63;5094396;28;20027;-84
2023/03/29 00:02:42;;;;;;;8.30;3.35;;;;;;;4.99;95.01;101690.72;5112623;28;20028;-83
2023/03/29 00:05:09;;;;;;;7.72;3.33;;;;;;;4.70;94.58;101637.72;5112503;28;20059;-84
2023/03/29 00:07:34;;;;;;;6.85;3.63;;;;;;;5.05;94.57;101677.75;5112440;28;20098;-84
2023/03/29 00:10:01;;;;;;;7.05;3.67;;;;;;;5.07;93.62;101676.00;5112522;28;20444;-81
2023/03/29 00:12:27;;;;;;;5.95;3.33;;;;;;;5.09;94.27;101669.09;5112769;28;20464;-78
2023/03/29 00:14:53;;;;;;;7.43;3.80;;;;;;;5.09;95.02;101672.50;5112601;28;20219;-77
2023/03/29 00:17:18;;;;;;;6.60;3.20;;;;;;;4.98;92.63;101641.25;5112711;28;20051;-76
2023/03/29 00:19:45;;;;;;;6.65;3.28;;;;;;;5.13;92.90;101663.03;5094165;28;20022;-78
2023/03/29 00:22:11;;;;;;;6.05;3.05;;;;;;;5.09;93.53;101651.19;5094038;28;20023;-77
2023/03/29 00:24:36;;;;;;;7.38;3.30;;;;;;;4.98;93.99;101632.72;5113452;28;20086;-78
2023/03/29 00:27:02;;;;;;;6.07;3.00;;;;;;;4.90;94.19;101615.00;5116374;28;20027;-79
2023/03/29 00:29:27;;;;;;;8.18;3.70;;;;;;;4.86;93.87;101606.59;5116225;28;20038;-79
2023/03/29 00:31:54;;;;;;;7.57;3.20;;;;;;;4.92;93.86;101607.28;5116120;28;20024;-78
2023/03/29 00:34:25;;;;;;;6.88;2.80;;;;;;;5.01;93.26;101614.72;5115877;28;20032;-85
2023/03/29 00:36:51;;;;;;;5.03;2.83;;;;;;;5.22;92.35;101650.00;5115847;28;20084;-84
2023/03/29 00:39:18;;;;;;;6.80;3.40;;;;;;;5.19;92.29;101645.78;5115742;28;20059;-83
2023/03/29 00:41:44;;;;;;;5.57;2.70;;;;;;;5.14;91.63;101634.84;5115873;28;20495;-78
2023/03/29 00:44:48;;;;;;;6.38;3.20;;;;;;;5.27;92.65;101652.41;5116315;28;20381;-79
2023/03/29 00:47:15;;;;;;;6.63;3.17;;;;;;;5.27;92.92;101644.72;5115565;28;20051;-78
2023/03/29 00:49:40;;;;;;;7.18;3.30;;;;;;;4.99;92.31;101598.56;5080141;28;20036;-78
2023/03/29 00:52:06;;;;;;;7.53;3.38;;;;;;;5.26;92.19;101632.81;5115633;28;20027;-79
2023/03/29 00:54:36;;;;;;;6.28;3.28;;;;;;;5.01;92.18;101599.34;5115454;28;20460;-77
2023/03/29 00:57:03;;;;;;;7.75;3.33;;;;;;;5.19;92.10;101620.16;5115570;28;20027;-77
2023/03/29 00:59:31;;;;;;;7.00;3.15;;;;;;;5.25;90.99;101610.66;5115554;28;20056;-77
2023/03/29 01:02:00;;;;;;;8.27;3.10;;;;;;;5.33;91.86;101621.53;5115394;28;20034;-79
2023/03/29 01:04:32;;;;;;;7.10;3.38;;;;;;;5.12;91.21;101576.88;5115397;28;20031;-76
2023/03/29 01:07:00;;;;;;;6.90;3.10;;;;;;;5.30;91.39;101612.19;5115483;28;20036;-79
2023/03/29 01:09:29;;;;;;;5.63;3.00;;;;;;;5.40;91.83;101621.28;5115575;28;20025;-80
2023/03/29 01:11:58;;;;;;;7.95;3.47;;;;;;;5.38;91.62;101622.22;5115415;28;20072;-78
2023/03/29 01:15:01;;;;;;;7.95;3.40;;;;;;;5.28;92.19;101598.59;5115186;28;20036;-77
2023/03/29 01:17:30;;;;;;;9.13;3.63;;;;;;;5.23;92.88;101587.66;5032526;28;20483;-78
2023/03/29 01:20:12;;;;;;;8.05;3.60;;;;;;;5.36;92.60;101616.31;5032152;28;20502;-77
2023/03/29 01:23:03;;;;;;;5.90;3.20;;;;;;;5.33;93.52;101604.44;5032320;28;20378;-78
2023/03/29 01:25:35;;;;;;;6.67;3.20;;;;;;;5.40;93.45;101611.03;5032690;28;20517;-80
2023/03/29 01:28:10;;;;;;;5.72;3.20;;;;;;;5.34;94.41;101600.97;5032171;28;20033;-77
2023/03/29 01:30:43;;;;;;;9.93;3.80;;;;;;;5.41;94.40;101610.19;5032080;28;20026;-81
2023/03/29 01:33:13;;;;;;;6.13;3.47;;;;;;;5.42;95.52;101609.28;5031890;28;20120;-77
2023/03/29 01:35:41;;;;;;;10.27;3.80;;;;;;;5.43;96.21;101600.72;5014330;28;20407;-77
2023/03/29 01:38:14;;;;;;;6.53;3.50;;;;;;;5.30;96.30;101571.22;5032002;28;20021;-78
2023/03/29 01:40:39;;;;;;;6.63;3.83;;;;;;;5.44;96.73;101592.16;5032329;28;20622;-78
2023/03/29 01:43:40;;;;;;;7.75;3.33;;;;;;;5.43;96.88;101590.47;5032142;28;20061;-78
2023/03/29 01:46:20;;;;;;;8.13;3.75;;;;;;;5.19;97.72;101542.53;4973111;28;20509;-78
2023/03/29 01:48:50;;;;;;;6.53;3.63;;;;;;;5.14;98.84;101540.09;4972851;28;20057;-78
2023/03/29 01:51:28;;;;;;;5.93;3.47;;;;;;;5.25;98.94;101549.19;4972986;28;20047;-78
2023/03/29 01:54:12;;;;;;;7.93;3.70;;;;;;;5.41;99.64;101571.75;5043532;28;20051;-78
2023/03/29 01:56:41;;;;;;;6.35;3.65;;;;;;;5.22;99.77;101541.63;5051433;28;20041;-78
2023/03/29 01:59:11;;;;;;;8.73;3.70;;;;;;;5.40;99.61;101562.38;5051678;28;20433;-78
2023/03/29 02:01:41;;;;;;;6.90;3.65;;;;;;;5.42;99.99;101565.75;5051329;28;20033;-77
2023/03/29 02:04:11;;;;;;;5.85;3.22;;;;;;;5.44;99.64;101570.81;5051487;28;20112;-79
2023/03/29 02:06:39;;;;;;;7.60;3.33;;;;;;;5.10;100.00;101505.22;5051266;28;20036;-77
2023/03/29 02:09:05;;;;;;;8.07;3.50;;;;;;;5.38;100.00;101558.19;5051320;28;20106;-77
2023/03/29 02:11:33;;;;;;;6.28;3.55;;;;;;;5.45;100.00;101554.56;5051402;28;20033;-77
2023/03/29 02:13:59;;;;;;;10.00;3.67;;;;;;;5.24;100.00;101509.13;5051320;28;20040;-85
2023/03/29 02:16:24;;;;;;;7.32;3.65;;;;;;;5.39;100.00;101542.75;5050946;28;20033;-78
2023/03/29 02:18:53;;;;;;;8.93;3.70;;;;;;;5.12;100.00;101495.78;5051082;28;20053;-78
2023/03/29 02:21:25;;;;;;;7.80;4.00;;;;;;;5.46;100.00;101544.28;5051065;28;20033;-83
2023/03/29 02:23:54;;;;;;;8.82;3.80;;;;;;;5.46;100.00;101540.88;5070799;28;20090;-83
2023/03/29 02:26:21;;;;;;;8.93;3.97;;;;;;;5.22;100.00;101504.03;5073010;28;20470;-77
2023/03/29 02:28:46;;;;;;;9.75;3.92;;;;;;;5.47;100.00;101539.97;5073205;28;20025;-79
2023/03/29 02:31:46;;;;;;;7.00;3.47;;;;;;;5.26;100.00;101509.91;5073018;28;20355;-77
2023/03/29 02:34:29;;;;;;;7.53;3.70;;;;;;;5.46;100.00;101531.47;5030649;28;20042;-84
2023/03/29 02:37:10;;;;;;;7.07;3.55;;;;;;;5.45;100.00;101524.66;5030658;28;20041;-79
2023/03/29 02:39:37;;;;;;;7.07;3.45;;;;;;;5.48;100.00;101522.00;5030996;28;20121;-83
2023/03/29 02:42:03;;;;;;;9.18;3.55;;;;;;;5.48;100.00;101519.44;5030974;28;20430;-80
2023/03/29 02:44:32;;;;;;;8.63;4.03;;;;;;;5.33;100.00;101494.31;5030811;28;20034;-84
2023/03/29 02:47:03;;;;;;;7.18;3.72;;;;;;;5.50;100.00;101516.00;5030743;28;20033;-84
2023/03/29 02:49:28;;;;;;;8.82;3.38;;;;;;;5.35;100.00;101487.41;5057564;28;20052;-82
2023/03/29 02:51:59;;;;;;;8.52;4.18;;;;;;;5.53;100.00;101516.75;5070460;28;20047;-85
2023/03/29 02:54:28;;;;;;;9.38;3.58;;;;;;;5.54;100.00;101507.34;5070413;28;20029;-83
2023/03/29 02:56:59;;;;;;;7.30;3.85;;;;;;;5.56;100.00;101510.69;5070429;28;20117;-83
2023/03/29 02:59:26;;;;;;;8.15;3.78;;;;;;;5.37;100.00;101482.25;5070286;28;20017;-84
2023/03/29 03:01:52;;;;;;;6.82;4.40;;;;;;;5.57;100.00;101502.09;5070303;28;20101;-84
2023/03/29 03:04:19;;;;;;;6.22;3.30;;;;;;;5.58;99.81;101503.78;5053716;28;20469;-82
2023/03/29 03:06:45;;;;;;;8.65;3.65;;;;;;;5.59;98.92;101501.16;5070564;28;20070;-84
2023/03/29 03:09:11;;;;;;;9.60;3.53;;;;;;;5.61;99.19;101499.41;5070040;28;20036;-84
2023/03/29 03:11:37;;;;;;;8.10;3.72;;;;;;;5.56;98.63;101483.34;5090975;28;20028;-84
2023/03/29 03:14:02;;;;;;;6.80;3.53;;;;;;;5.64;97.92;101496.75;5092766;28;20505;-84
2023/03/29 03:16:27;;;;;;;5.90;3.17;;;;;;;5.56;97.77;101480.78;5092526;28;20028;-84
2023/03/29 03:18:54;;;;;;;6.55;3.70;;;;;;;5.64;97.37;101483.94;5092710;28;20058;-83
2023/03/29 03:21:19;;;;;;;6.03;3.17;;;;;;;5.59;97.53;101472.16;5092638;28;20028;-84
2023/03/29 03:23:46;;;;;;;7.45;3.13;;;;;;;5.34;96.92;101429.41;5091236;28;20020;-83
2023/03/29 03:26:12;;;;;;;5.65;3.15;;;;;;;5.69;96.26;101482.06;5092404;28;20384;-83
2023/03/29 03:28:38;;;;;;;8.32;3.53;;;;;;;5.65;96.51;101466.84;5092659;28;20052;-84
2023/03/29 03:31:04;;;;;;;7.10;3.45;;;;;;;5.78;95.83;101486.03;5092548;28;20437;-84
2023/03/29 03:33:29;;;;;;;6.93;3.30;;;;;;;5.82;95.06;101476.56;5092310;28;20469;-85
2023/03/29 03:35:55;;;;;;;7.63;3.38;;;;;;;5.58;94.65;101437.16;5092679;28;20048;-84
2023/03/29 03:38:22;;;;;;;9.38;3.55;;;;;;;5.82;95.03;101476.56;5092588;28;20050;-84
2023/03/29 03:40:54;;;;;;;5.80;3.28;;;;;;;5.82;94.93;101485.06;5092514;28;20024;-83
2023/03/29 03:43:20;;;;;;;7.97;2.83;;;;;;;5.79;94.76;101471.50;5092554;28;20385;-85
2023/03/29 03:45:45;;;;;;;6.78;3.55;;;;;;;5.84;93.49;101480.72;5092448;28;20030;-83
2023/03/29 03:48:11;;;;;;;5.50;2.70;;;;;;;5.63;92.91;101441.28;5095354;28;20097;-85
2023/03/29 03:50:37;;;;;;;8.00;3.22;;;;;;;5.89;92.64;101486.53;5112931;28;20019;-81
2023/03/29 03:53:02;;;;;;;6.43;2.72;;;;;;;5.62;92.24;101436.19;5112609;28;20452;-81
2023/03/29 03:55:28;;;;;;;6.65;3.10;;;;;;;5.70;91.98;101447.00;5112630;28;20031;-81
2023/03/29 03:57:54;;;;;;;5.53;2.80;;;;;;;5.76;91.75;101451.94;5094685;28;20404;-81
2023/03/29 04:00:20;;;;;;;7.10;3.35;;;;;;;5.88;91.39;101473.78;5115129;28;20035;-84
2023/03/29 04:02:46;;;;;;;6.63;3.15;;;;;;;5.92;92.16;101486.47;5116318;28;20073;-84
2023/03/29 04:05:12;;;;;;;7.20;2.80;;;;;;;5.93;90.94;101479.63;5116532;28;20536;-84
2023/03/29 04:07:39;;;;;;;6.80;2.88;;;;;;;5.91;91.75;101466.88;5116308;28;20063;-83
2023/03/29 04:10:05;;;;;;;5.30;2.80;;;;;;;5.91;91.88;101474.56;5116594;28;20469;-81
2023/03/29 04:12:30;;;;;;;7.72;3.35;;;;;;;5.69;91.47;101435.94;5116570;28;20031;-82
2023/03/29 04:14:56;;;;;;;7.20;3.03;;;;;;;5.80;92.17;101452.66;5116388;28;20161;-82
2023/03/29 04:17:21;;;;;;;6.45;2.92;;;;;;;5.59;91.62;101418.34;5116322;28;20026;-83
2023/03/29 04:19:46;;;;;;;8.60;3.28;;;;;;;5.90;92.76;101460.06;5116543;28;20035;-77
2023/03/29 04:22:12;;;;;;;8.38;3.35;;;;;;;5.66;91.76;101414.69;5116323;28;20033;-77
2023/03/29 04:24:37;;;;;;;7.90;3.38;;;;;;;5.73;91.81;101431.56;5116170;28;20050;-78
2023/03/29 04:27:03;;;;;;;5.80;3.10;;;;;;;5.61;91.63;101411.47;5116222;28;20037;-78
2023/03/29 04:29:28;;;;;;;7.18;3.05;;;;;;;5.90;92.10;101451.47;5098084;28;20099;-77
2023/03/29 04:31:53;;;;;;;5.47;2.90;;;;;;;5.88;92.00;101448.97;5116095;28;20035;-78
2023/03/29 04:34:19;;;;;;;6.78;3.20;;;;;;;5.90;91.55;101454.94;5097639;28;20028;-78
2023/03/29 04:36:44;;;;;;;10.02;3.38;;;;;;;5.68;91.35;101418.88;5116162;28;20027;-79
2023/03/29 04:39:10;;;;;;;8.23;3.50;;;;;;;5.91;91.41;101451.50;5115979;28;20485;-78
2023/03/29 04:41:35;;;;;;;7.22;3.15;;;;;;;5.58;91.43;101398.75;5115915;28;20423;-78
2023/03/29 04:44:01;;;;;;;8.88;3.55;;;;;;;5.72;91.36;101414.50;5116105;28;20030;-79
2023/03/29 04:46:27;;;;;;;6.80;3.38;;;;;;;5.88;92.58;101443.84;5115832;28;20024;-78
2023/03/29 04:48:52;;;;;;;9.10;3.47;;;;;;;5.94;92.18;101448.81;5097285;28;20054;-78
2023/03/29 04:51:20;;;;;;;6.65;3.10;;;;;;;5.94;91.40;101447.97;5097295;28;20027;-78
2023/03/29 04:53:47;;;;;;;6.32;3.28;;;;;;;5.78;91.19;101414.28;5115615;28;20027;-78
2023/03/29 04:56:12;;;;;;;6.95;3.40;;;;;;;5.97;91.62;101440.16;5115618;28;20396;-78
2023/03/29 04:58:38;;;;;;;6.90;3.50;;;;;;;5.85;91.12;101418.31;5115576;28;20024;-78
2023/03/29 05:01:04;;;;;;;7.43;3.50;;;;;;;5.70;91.37;101395.75;5115586;28;20066;-78
2023/03/29 05:03:30;;;;;;;6.30;3.17;;;;;;;6.01;91.45;101436.63;5115516;28;20020;-78
2023/03/29 05:06:05;;;;;;;7.63;3.30;;;;;;;5.94;90.83;101425.75;5115347;28;20032;-80
2023/03/29 05:08:31;;;;;;;7.03;3.25;;;;;;;6.06;91.39;101436.47;5115502;28;20020;-82
2023/03/29 05:10:56;;;;;;;5.97;3.50;;;;;;;5.84;91.06;101396.16;5114359;28;20069;-81
2023/03/29 05:13:22;;;;;;;9.98;3.92;;;;;;;5.80;91.23;101386.91;5115386;28;20031;-78
2023/03/29 05:15:47;;;;;;;6.75;3.72;;;;;;;6.10;91.72;101435.47;5115151;28;20464;-80
2023/03/29 05:18:13;;;;;;;7.10;3.70;;;;;;;6.12;91.37;101434.53;5115016;28;20035;-77
2023/03/29 05:20:39;;;;;;;7.78;3.83;;;;;;;6.03;92.15;101415.16;5115074;28;20023;-83
2023/03/29 05:23:04;;;;;;;9.30;4.05;;;;;;;6.15;91.19;101431.84;5115255;28;20103;-84
2023/03/29 05:25:30;;;;;;;8.48;3.30;;;;;;;6.15;91.21;101421.59;5115297;28;20098;-81
2023/03/29 05:27:56;;;;;;;7.13;3.55;;;;;;;6.17;91.30;101429.22;5114956;28;20023;-79
2023/03/29 05:30:21;;;;;;;9.98;4.20;;;;;;;5.95;91.39;101390.69;5115075;28;20091;-83
2023/03/29 05:32:47;;;;;;;7.25;3.67;;;;;;;5.81;91.45;101377.50;5114804;28;20020;-81
2023/03/29 05:35:12;;;;;;;9.27;4.20;;;;;;;6.23;91.09;101441.84;5114634;28;20365;-77
2023/03/29 05:37:37;;;;;;;7.63;3.95;;;;;;;6.13;91.69;101415.69;5096656;28;20019;-83
2023/03/29 05:40:06;;;;;;;10.80;4.10;;;;;;;6.29;92.05;101436.47;5114821;28;20028;-82
2023/03/29 05:42:32;;;;;;;7.53;3.63;;;;;;;6.32;91.62;101444.09;5114879;28;20031;-84
2023/03/29 05:44:57;;;;;;;7.88;4.13;;;;;;;6.08;91.43;101391.91;5114763;28;20016;-83
2023/03/29 05:47:22;;;;;;;9.55;4.00;;;;;;;6.14;91.02;101401.13;5096071;28;20119;-84
2023/03/29 05:49:48;;;;;;;9.13;4.50;;;;;;;6.43;91.21;101443.72;5096122;28;20068;-78
2023/03/29 05:52:13;;;;;;;8.45;4.20;;;;;;;6.46;91.28;101444.41;5114757;28;20032;-83
2023/03/29 05:54:39;;;;;;;7.80;3.75;;;;;;;6.13;90.92;101384.91;5114462;28;20579;-78
2023/03/29 05:57:04;;;;;;;8.05;4.00;;;;;;;6.33;91.15;101413.25;5114546;28;20076;-83
2023/03/29 05:59:31;;;;;;;6.60;3.80;;;;;;;6.36;91.03;101408.91;5114370;28;20038;-81
2023/03/29 06:01:56;;;;;;;8.10;4.30;;;;;;;6.64;91.12;101454.91;5114109;28;20015;-82
2023/03/29 06:04:21;;;;;;;8.07;4.28;;;;;;;6.67;91.00;101453.06;5114289;28;20031;-82
2023/03/29 06:06:47;;;;;;;10.02;4.43;;;;;;;6.48;90.28;101416.97;5114046;28;20023;-82
2023/03/29 06:09:13;;;;;;;9.35;3.63;;;;;;;6.57;90.46;101420.94;5114039;28;20415;-81
2023/03/29 06:11:38;;;;;;;7.22;3.80;;;;;;;6.55;90.34;101407.34;5114329;28;20059;-82
2023/03/29 06:14:03;;;;;;;7.75;4.70;;;;;;;6.75;90.68;101433.09;5095132;28;20130;-80
2023/03/29 06:16:29;;;;;;;9.20;3.90;;;;;;;6.86;90.48;101443.78;5114021;28;20028;-84
2023/03/29 06:18:55;;;;;;;9.07;4.40;;;;;;;6.88;91.06;101444.59;5113940;28;20051;-82
2023/03/29 06:21:21;;;;;;;7.22;3.90;;;;;;;6.18;90.70;101330.88;5113822;28;20023;-82
2023/03/29 06:23:46;;;;;;;8.65;4.05;;;;;;;6.95;91.08;101452.03;5113793;28;20024;-83
2023/03/29 06:26:12;;;;;;;9.52;4.40;;;;;;;6.98;90.52;101452.78;5114364;28;20028;-83
2023/03/29 06:28:37;;;;;;;7.88;4.20;;;;;;;7.02;90.44;101451.75;5113726;28;20024;-82
2023/03/29 06:31:03;;;;;;;11.07;4.30;;;;;;;7.07;90.62;101457.53;5113929;28;20105;-83
2023/03/29 06:33:31;;;;;;;6.00;3.65;;;;;;;7.05;90.13;101437.97;5112576;28;20015;-81
2023/03/29 06:35:57;;;;;;;9.27;4.57;;;;;;;7.17;89.93;101450.31;5114044;28;20026;-81
2023/03/29 06:38:23;;;;;;;8.27;5.00;;;;;;;7.15;90.51;101442.69;5114306;28;20031;-85
2023/03/29 06:40:50;;;;;;;7.38;4.10;;;;;;;6.88;90.01;101385.53;5113589;28;20465;-83
2023/03/29 06:43:16;;;;;;;9.32;4.30;;;;;;;7.23;90.23;101432.13;5113531;28;20061;-79
2023/03/29 06:45:41;;;;;;;7.90;4.15;;;;;;;7.30;89.49;101441.25;5113488;28;20112;-82
2023/03/29 06:48:07;;;;;;;10.23;4.35;;;;;;;7.33;90.96;101442.84;5113603;28;20020;-79
2023/03/29 06:50:36;;;;;;;8.98;4.68;;;;;;;7.38;90.40;101448.66;5113594;28;20055;-82
2023/03/29 06:53:03;;;;;;;7.95;4.43;;;;;;;7.45;90.41;101450.06;5095820;28;20023;-82
2023/03/29 06:55:28;;;;;;;8.55;4.28;;;;;;;7.48;90.14;101431.97;5113228;28;20030;-83
2023/03/29 06:57:54;;;;;;;8.38;4.10;;;;;;;7.65;89.35;101450.09;5113366;28;20476;-81
2023/03/29 07:00:26;;;;;;;7.88;4.13;;;;;;;7.72;89.70;101450.69;5113362;28;20080;-82
2023/03/29 07:02:53;;;;;;;7.88;4.00;;;;;;;7.63;90.58;101430.50;5113409;28;20026;-83
2023/03/29 07:05:18;;;;;;;10.55;4.35;;;;;;;7.83;90.00;101451.09;5113323;28;20069;-82
2023/03/29 07:10:36;;;;;;;10.00;4.47;;;;;;;7.79;89.43;101435.88;5113167;28;20024;-83
2023/03/29 07:13:04;;;;;;;8.55;4.20;;;;;;;7.99;89.18;101453.88;5113306;28;20016;-81
2023/03/29 07:15:31;;;;;;;8.43;4.53;;;;;;;7.99;89.36;101457.28;5113084;28;20426;-83
2023/03/29 07:17:56;;;;;;;12.27;4.60;;;;;;;7.92;89.18;101432.69;5112908;28;20456;-82
2023/03/29 07:20:23;;;;;;;9.50;4.07;;;;;;;7.92;89.31;101427.56;5113220;28;20019;-82
2023/03/29 07:22:52;;;;;;;8.57;4.53;;;;;;;8.15;89.36;101464.31;5113176;28;20130;-80
2023/03/29 07:25:20;;;;;;;11.23;4.90;;;;;;;7.73;89.60;101383.78;5112930;28;20389;-81
2023/03/29 07:27:46;;;;;;;11.15;5.55;;;;;;;7.98;89.25;101416.19;5113081;28;20073;-81
2023/03/29 07:30:15;;;;;;;10.77;5.32;;;;;;;8.08;89.35;101429.50;5112913;28;20103;-81
2023/03/29 07:32:44;;;;;;;9.00;4.68;;;;;;;8.25;89.07;101458.72;5112871;28;20024;-81
2023/03/29 07:35:11;;;;;;;12.43;5.32;;;;;;;8.32;89.87;101473.00;5115212;28;20015;-77
2023/03/29 07:37:37;;;;;;;9.88;5.20;;;;;;;8.22;89.90;101456.28;5116935;28;20031;-79
2023/03/29 07:40:11;;;;;;;10.25;4.63;;;;;;;8.11;89.33;101444.78;5116602;28;20107;-80
2023/03/29 07:42:38;;;;;;;10.68;4.90;;;;;;;8.31;89.38;101471.31;5117200;28;20066;-80
2023/03/29 07:45:05;;;;;;;10.32;5.30;;;;;;;8.27;89.94;101462.09;5117160;28;20019;-80
2023/03/29 07:47:30;;;;;;;9.82;5.30;;;;;;;8.44;89.66;101491.41;5098830;28;20039;-81
2023/03/29 07:49:56;;;;;;;9.10;4.53;;;;;;;8.42;90.04;101488.91;5116791;28;20484;-81
2023/03/29 07:52:22;;;;;;;8.93;5.07;;;;;;;8.45;90.55;101500.78;5098975;28;20461;-81
2023/03/29 07:54:47;;;;;;;8.63;4.70;;;;;;;8.49;90.49;101492.91;5116292;28;20060;-81
2023/03/29 07:57:12;;;;;;;8.77;4.72;;;;;;;8.52;90.72;101486.75;5116994;28;20027;-79
2023/03/29 07:59:38;;;;;;;12.32;5.10;;;;;;;8.44;91.20;101470.81;5116533;28;20028;-80
2023/03/29 08:02:04;;;;;;;8.18;5.03;;;;;;;8.60;90.79;101484.69;5116807;28;20023;-81
2023/03/29 08:04:29;;;;;;;11.80;5.05;;;;;;;8.57;91.25;101477.94;5116495;28;20039;-81
2023/03/29 08:06:55;;;;;;;11.75;5.15;;;;;;;8.49;91.61;101444.00;5116443;28;20028;-81
2023/03/29 08:09:20;;;;;;;10.48;5.40;;;;;;;8.77;90.75;101479.63;5116653;28;20051;-81
2023/03/29 08:11:46;;;;;;;9.95;4.90;;;;;;;8.88;91.33;101482.56;5116423;28;20034;-81
2023/03/29 08:14:11;;;;;;;10.48;5.82;;;;;;;8.60;91.11;101438.34;5116543;28;20045;-81
2023/03/29 08:16:36;;;;;;;9.70;4.80;;;;;;;8.69;91.20;101455.13;5116470;28;20063;-81
2023/03/29 08:19:02;;;;;;;10.90;5.30;;;;;;;8.86;91.85;101491.28;5116217;28;20049;-81
2023/03/29 08:21:31;;;;;;;11.60;5.32;;;;;;;8.09;92.55;101372.84;5116355;28;20077;-81
2023/03/29 08:23:56;;;;;;;10.82;5.28;;;;;;;8.73;94.00;101488.38;5116115;28;20098;-82
2023/03/29 08:26:21;;;;;;;11.65;5.55;;;;;;;8.68;94.51;101486.94;5116257;28;20036;-81
2023/03/29 08:28:47;;;;;;;11.77;5.35;;;;;;;8.57;95.75;101467.66;5116246;28;20023;-81
2023/03/29 08:31:12;;;;;;;10.63;5.30;;;;;;;8.61;97.00;101470.91;5116326;28;20024;-81
2023/03/29 08:33:38;;;;;;;11.82;5.93;;;;;;;8.69;97.22;101455.97;5116172;28;20376;-81
2023/03/29 08:36:03;;;;;;;12.05;6.15;;;;;;;8.79;97.30;101434.03;5116252;28;20077;-81
2023/03/29 08:38:29;;;;;;;10.27;5.50;;;;;;;9.19;96.35;101474.25;5116419;28;20031;-81
2023/03/29 08:40:55;;;;;;;11.38;5.47;;;;;;;9.19;95.00;101433.03;5115953;28;20016;-80
2023/03/29 08:43:21;;;;;;;11.60;6.03;;;;;;;9.72;94.06;101470.84;5115979;28;20023;-80
2023/03/29 08:46:10;;;;;;;8.65;4.93;;;;;;;9.97;91.80;101472.22;5115856;28;20024;-82
2023/03/29 08:48:44;;;;;;;11.27;6.03;;;;;;;9.98;91.55;101461.81;5115679;28;20126;-74
2023/03/29 08:51:32;;;;;;;11.20;4.90;;;;;;;9.98;90.82;101437.75;5115661;28;20468;-81
2023/03/29 08:54:20;;;;;;;12.80;5.60;;;;;;;10.17;90.64;101468.63;5115856;28;20430;-82
2023/03/29 08:56:48;;;;;;;9.27;5.25;;;;;;;10.24;90.87;101459.69;5115478;28;20034;-80
2023/03/29 08:59:23;;;;;;;11.13;5.68;;;;;;;10.29;90.47;101450.78;5115936;28;20028;-78
2023/03/29 09:01:52;;;;;;;13.20;6.00;;;;;;;10.34;89.04;101442.81;5115528;28;20107;-81
2023/03/29 09:04:34;;;;;;;10.75;6.55;;;;;;;10.58;89.75;101438.94;5115306;28;20051;-79
2023/03/29 09:07:02;;;;;;;10.48;5.80;;;;;;;10.64;88.60;101424.88;5115435;28;20073;-78
2023/03/29 09:09:32;;;;;;;10.60;5.55;;;;;;;10.85;88.31;101439.19;5115301;28;20069;-80
2023/03/29 09:12:40;;;;;;;11.05;6.22;;;;;;;11.07;88.97;101453.53;5115330;28;20027;-83
2023/03/29 09:15:20;;;;;;;12.18;6.32;;;;;;;11.06;87.91;101426.84;5115427;28;20105;-79
2023/03/29 09:17:55;;;;;;;14.52;6.80;;;;;;;11.34;87.91;101454.59;5114961;28;20028;-79
2023/03/29 09:20:46;;;;;;;12.63;6.38;;;;;;;11.59;87.09;101458.34;5115265;28;20035;-80
2023/03/29 09:23:21;;;;;;;10.57;6.07;;;;;;;11.65;85.37;101469.19;5115306;28;20028;-80
2023/03/29 09:26:10;;;;;;;12.75;5.88;;;;;;;11.46;85.84;101459.06;5096728;28;20552;-80
2023/03/29 09:28:44;;;;;;;10.25;5.25;;;;;;;11.52;86.68;101468.25;4993172;28;20049;-80
2023/03/29 09:31:17;;;;;;;12.82;6.65;;;;;;;11.44;87.06;101454.91;4992794;28;20502;-79
2023/03/29 09:33:56;;;;;;;11.20;5.65;;;;;;;11.38;87.51;101447.47;4992918;28;20062;-80
2023/03/29 09:36:40;;;;;;;12.07;7.07;;;;;;;11.51;87.07;101450.22;4992787;28;20034;-81
2023/03/29 09:39:08;;;;;;;13.02;6.13;;;;;;;11.41;86.33;101447.34;4992913;28;20061;-79
2023/03/29 09:42:10;;;;;;;13.38;6.97;;;;;;;11.34;87.01;101456.34;4992660;28;20088;-79
2023/03/29 09:44:42;;;;;;;13.93;7.25;;;;;;;11.24;87.72;101460.38;4915953;29;20104;-79
2023/03/29 09:47:17;;;;;;;16.08;6.95;;;;;;;11.13;88.32;101458.38;4915553;29;20056;-80
2023/03/29 09:49:46;;;;;;;12.50;6.80;;;;;;;11.09;88.99;101442.19;4915571;29;20530;-81
2023/03/29 09:52:15;;;;;;;14.68;6.90;;;;;;;11.12;nan;101464.47;4915679;29;20097;-80
2023/03/29 09:54:40;;;;;;;11.88;7.10;;;;;;;10.96;90.77;101450.72;4915475;29;20068;-81
2023/03/29 09:57:10;;;;;;;13.18;7.25;;;;;;;10.86;92.20;101471.88;4915191;29;20487;-82
2023/03/29 09:59:36;;;;;;;12.77;7.25;;;;;;;10.69;94.06;101471.94;4914337;29;20084;-79
2023/03/29 10:02:10;;;;;;;16.27;8.90;;;;;;;10.54;95.60;101472.75;4916248;29;20028;-79
2023/03/29 10:04:37;;;;;;;13.23;7.38;;;;;;;10.50;96.80;101478.97;4920036;28;20068;-77
2023/03/29 10:07:04;;;;;;;16.77;8.13;;;;;;;10.28;97.45;101423.31;4992277;28;20201;-77
2023/03/29 10:09:31;;;;;;;17.17;8.40;;;;;;;10.62;97.90;101468.03;4992174;28;20040;-80
2023/03/29 10:12:02;;;;;;;15.85;8.13;;;;;;;10.56;97.88;101448.50;4991924;28;20033;-76
2023/03/29 10:14:32;;;;;;;13.38;7.35;;;;;;;10.90;96.80;101455.28;4991791;28;20135;-79
2023/03/29 10:16:58;;;;;;;13.48;7.50;;;;;;;11.18;95.03;101458.94;4991971;28;20042;-78
2023/03/29 10:19:34;;;;;;;14.43;7.75;;;;;;;11.35;94.57;101456.25;5011605;28;20043;-79
2023/03/29 10:22:06;;;;;;;11.95;7.38;;;;;;;11.54;94.11;101447.47;5093819;28;20130;-78
2023/03/29 10:24:32;;;;;;;12.73;7.35;;;;;;;11.64;92.56;101451.19;5093390;28;20023;-76
2023/03/29 10:27:05;;;;;;;15.50;7.05;;;;;;;11.20;91.99;101405.38;5092687;28;20028;-77
2023/03/29 10:29:37;;;;;;;12.45;7.50;;;;;;;11.42;93.05;101457.59;5093417;28;20111;-79
2023/03/29 10:32:24;;;;;;;12.77;7.70;;;;;;;11.58;92.61;101449.78;5093463;28;20366;-78
2023/03/29 10:34:51;;;;;;;11.63;7.57;;;;;;;11.48;92.63;101410.66;5093398;28;20024;-79
2023/03/29 10:37:18;;;;;;;11.25;7.30;;;;;;;11.76;92.03;101445.28;5093118;28;20035;-80
2023/03/29 10:39:45;;;;;;;10.77;6.82;;;;;;;11.66;91.74;101444.16;5093162;28;20043;-79
2023/03/29 10:42:15;;;;;;;12.32;7.32;;;;;;;11.38;93.27;101425.03;5092753;28;20031;-78
2023/03/29 10:44:40;;;;;;;11.52;6.90;;;;;;;11.57;95.64;101448.09;5093308;28;20423;-79
2023/03/29 10:47:08;;;;;;;15.50;7.38;;;;;;;11.53;97.09;101415.59;5093288;28;20024;-79
2023/03/29 10:49:43;;;;;;;14.48;8.10;;;;;;;11.86;96.69;101419.75;5092975;28;20074;-78
2023/03/29 10:52:12;;;;;;;12.25;7.65;;;;;;;11.99;95.13;101411.16;5093273;28;20066;-78
2023/03/29 10:54:38;;;;;;;11.75;7.43;;;;;;;12.15;93.99;101410.25;5093012;28;20052;-79
2023/03/29 10:57:10;;;;;;;12.20;7.50;;;;;;;12.08;91.49;101391.66;5092728;28;20430;-79
2023/03/29 10:59:54;;;;;;;10.68;7.30;;;;;;;12.44;92.05;101406.72;5093095;28;20070;-78
2023/03/29 11:02:39;;;;;;;15.10;8.00;;;;;;;12.79;91.66;101382.97;5100403;28;20024;-79
2023/03/29 11:05:28;;;;;;;11.95;7.03;;;;;;;13.35;89.01;101402.66;5113113;28;20469;-78
2023/03/29 11:07:59;;;;;;;10.82;7.03;;;;;;;13.43;87.14;101397.00;5113062;28;20024;-80
2023/03/29 11:11:01;;;;;;;9.82;6.57;;;;;;;13.37;85.38;101399.97;5112372;28;20068;-81
2023/03/29 11:13:38;;;;;;;10.82;6.53;;;;;;;13.28;84.72;101396.25;5112904;28;20027;-81
2023/03/29 11:16:12;;;;;;;11.38;7.00;;;;;;;13.29;85.97;101394.47;5112948;28;20435;-82
2023/03/29 11:18:37;;;;;;;10.88;6.80;;;;;;;13.37;86.32;101394.78;5113341;28;20423;-83
2023/03/29 11:21:23;;;;;;;12.15;6.90;;;;;;;13.51;84.87;101389.53;5094781;28;20027;-83
2023/03/29 11:24:45;;;;;;;11.52;7.13;;;;;;;13.77;85.04;101386.03;5112669;28;20023;-80
2023/03/29 11:27:45;;;;;;;10.65;6.60;;;;;;;14.01;83.12;101380.94;5010498;28;20061;-81
2023/03/29 11:30:22;;;;;;;12.30;6.45;;;;;;;13.92;81.93;101380.72;4994221;28;20159;-80
2023/03/29 11:33:25;;;;;;;10.75;6.68;;;;;;;13.94;83.87;101392.66;5010650;28;20044;-80
2023/03/29 11:36:00;;;;;;;10.98;6.05;;;;;;;14.00;82.68;101394.03;5010496;28;20117;-82
2023/03/29 11:38:37;;;;;;;11.80;6.28;;;;;;;13.85;81.70;101340.53;5009498;28;20045;-81
2023/03/29 11:41:34;;;;;;;10.35;5.97;;;;;;;14.35;82.57;101401.97;5011274;28;20611;-80
2023/03/29 11:44:28;;;;;;;11.70;6.00;;;;;;;14.32;81.45;101386.59;5009827;28;20034;-83